Time;durP1;ratioP1;P1;durP2;ratioP2;P2;SDS_P1;SDS_P2;PMS_P1;PMS_P2;Temp;Humidity;BMP_temperature;BMP_pressure;BME280_temperature;BME280_humidity;BME280_pressure;Samples;Min_cycle;Max_cycle;Signal;HPM_P1;HPM_P2
2024/01/14 00:02:06;;;;;;;104.37;47.30;;;;;;;0.05;100.00;101439.34;5026574;28;20171;-63
2024/01/14 00:04:31;;;;;;;111.83;47.67;;;;;;;0.08;100.00;101437.06;5027665;28;20024;-63
2024/01/14 00:06:57;;;;;;;101.00;46.67;;;;;;;0.12;100.00;101417.81;5026786;28;20037;-63
2024/01/14 00:09:22;;;;;;;103.30;47.07;;;;;;;0.09;100.00;101427.78;5027435;28;20017;-63
2024/01/14 00:11:48;;;;;;;98.23;46.23;;;;;;;0.05;100.00;101438.47;5026991;28;20461;-63
2024/01/14 00:14:14;;;;;;;103.23;46.57;;;;;;;0.04;100.00;101429.00;5026042;28;20029;-63
2024/01/14 00:16:39;;;;;;;101.03;45.37;;;;;;;0.03;100.00;101430.69;5026697;28;20496;-63
2024/01/14 00:19:05;;;;;;;101.83;46.90;;;;;;;0.01;100.00;101431.31;5026904;28;20060;-63
2024/01/14 00:21:31;;;;;;;105.87;46.97;;;;;;;0.04;100.00;101423.91;5026727;28;20032;-63
2024/01/14 00:23:56;;;;;;;101.73;48.00;;;;;;;0.05;100.00;101431.72;5026104;28;20259;-63
2024/01/14 00:26:24;;;;;;;106.23;46.83;;;;;;;0.04;100.00;101426.47;5026547;28;20557;-63
2024/01/14 00:28:53;;;;;;;109.13;45.40;;;;;;;0.06;100.00;101423.28;5026599;28;20040;-63
2024/01/14 00:31:18;;;;;;;105.87;45.30;;;;;;;0.06;100.00;101424.94;5026440;28;20108;-63
2024/01/14 00:33:43;;;;;;;100.97;42.87;;;;;;;0.03;100.00;101417.94;5026723;28;20096;-63
2024/01/14 00:36:09;;;;;;;104.70;45.13;;;;;;;0.04;100.00;101423.91;5026498;28;20030;-62
2024/01/14 00:38:34;;;;;;;102.60;44.63;;;;;;;0.05;100.00;101405.31;5026167;28;20408;-63
2024/01/14 00:40:59;;;;;;;103.97;46.33;;;;;;;0.03;100.00;101399.19;5024606;28;20450;-63
2024/01/14 00:43:26;;;;;;;101.90;45.30;;;;;;;0.03;100.00;101395.00;5020601;28;20029;-63
2024/01/14 00:45:52;;;;;;;104.67;44.40;;;;;;;0.06;100.00;101379.06;5026334;28;20034;-62
2024/01/14 00:48:17;;;;;;;94.07;43.70;;;;;;;0.09;100.00;101381.88;5026604;28;20059;-63
2024/01/14 00:50:42;;;;;;;95.33;42.63;;;;;;;0.10;100.00;101388.75;5026305;28;20103;-63
2024/01/14 00:53:08;;;;;;;102.43;44.63;;;;;;;0.16;100.00;101393.47;5026799;28;20541;-63
2024/01/14 00:55:33;;;;;;;97.63;43.30;;;;;;;0.14;100.00;101385.72;5028058;28;20032;-63
2024/01/14 00:57:58;;;;;;;98.90;42.93;;;;;;;0.11;100.00;101385.44;5030344;28;20528;-62
2024/01/14 01:00:24;;;;;;;96.00;41.77;;;;;;;0.13;100.00;101383.91;5030187;28;20505;-63
2024/01/14 01:02:50;;;;;;;91.17;41.10;;;;;;;0.17;100.00;101383.41;5030205;28;20064;-63
2024/01/14 01:05:15;;;;;;;95.57;41.50;;;;;;;0.14;100.00;101378.06;5030188;28;20025;-63
2024/01/14 01:07:40;;;;;;;96.67;40.73;;;;;;;0.14;100.00;101372.97;5030461;28;20053;-63
2024/01/14 01:10:06;;;;;;;97.63;42.03;;;;;;;0.15;100.00;101372.19;5030276;28;20025;-63
2024/01/14 01:12:31;;;;;;;86.80;41.73;;;;;;;0.13;100.00;101371.16;5030576;28;20026;-63
2024/01/14 01:14:57;;;;;;;95.63;42.10;;;;;;;0.14;100.00;101360.22;5029975;28;20018;-63
2024/01/14 01:17:22;;;;;;;100.50;44.00;;;;;;;0.14;100.00;101360.22;5029357;28;20071;-63
2024/01/14 01:19:47;;;;;;;101.73;44.50;;;;;;;0.14;100.00;101365.31;5029933;28;20033;-63
2024/01/14 01:22:12;;;;;;;93.37;42.97;;;;;;;0.16;100.00;101361.25;5029931;28;20037;-63
2024/01/14 01:24:38;;;;;;;94.33;43.43;;;;;;;0.14;100.00;101365.31;5029239;28;20448;-63
2024/01/14 01:27:04;;;;;;;95.67;43.27;;;;;;;0.14;100.00;101359.31;5029948;28;20022;-63
2024/01/14 01:29:30;;;;;;;101.47;43.43;;;;;;;0.14;100.00;101361.88;5029471;28;20425;-63
2024/01/14 01:31:56;;;;;;;96.87;43.63;;;;;;;0.16;100.00;101361.25;5029944;28;20029;-63
2024/01/14 01:34:21;;;;;;;96.00;42.53;;;;;;;0.16;100.00;101358.69;5029608;28;20029;-63
2024/01/14 01:36:47;;;;;;;91.93;41.50;;;;;;;0.18;100.00;101369.00;5029572;28;20075;-63
2024/01/14 01:39:14;;;;;;;96.17;42.90;;;;;;;0.17;100.00;101365.56;5028104;28;20033;-63
2024/01/14 01:41:39;;;;;;;96.73;43.50;;;;;;;0.19;100.00;101369.13;5029582;28;20029;-63
2024/01/14 01:44:05;;;;;;;94.20;41.83;;;;;;;0.18;100.00;101364.78;5028988;28;20527;-63
2024/01/14 01:46:30;;;;;;;97.83;45.07;;;;;;;0.17;100.00;101357.91;5027749;28;20033;-63
2024/01/14 01:48:56;;;;;;;95.90;42.57;;;;;;;0.18;100.00;101357.13;5029469;28;20104;-63
2024/01/14 01:51:22;;;;;;;94.07;41.63;;;;;;;0.16;100.00;101353.59;5029242;28;20357;-62
2024/01/14 01:53:48;;;;;;;93.53;43.33;;;;;;;0.16;100.00;101351.03;5029323;28;20397;-63
2024/01/14 01:56:14;;;;;;;88.83;42.07;;;;;;;0.14;100.00;101342.38;5028501;28;20488;-63
2024/01/14 01:58:40;;;;;;;84.60;40.37;;;;;;;0.15;100.00;101335.59;5028904;28;20033;-63
2024/01/14 02:01:05;;;;;;;87.40;41.57;;;;;;;0.14;100.00;101342.38;5029443;28;20039;-62
2024/01/14 02:03:33;;;;;;;86.73;41.10;;;;;;;0.17;100.00;101340.06;5029648;28;20037;-63
2024/01/14 02:05:59;;;;;;;89.17;42.03;;;;;;;0.17;100.00;101334.97;5029073;28;20043;-63
2024/01/14 02:08:25;;;;;;;85.60;41.00;;;;;;;0.18;100.00;101338.41;5028911;28;20032;-63
2024/01/14 02:10:51;;;;;;;92.13;40.77;;;;;;;0.14;100.00;101332.16;5029085;28;20033;-63
2024/01/14 02:13:17;;;;;;;86.53;40.10;;;;;;;0.11;100.00;101335.34;5029003;28;20033;-63
2024/01/14 02:15:42;;;;;;;91.57;41.63;;;;;;;0.15;100.00;101333.94;5029074;28;20028;-63
2024/01/14 02:18:07;;;;;;;93.97;43.17;;;;;;;0.12;100.00;101326.06;5028926;28;20037;-63
2024/01/14 02:20:32;;;;;;;93.70;43.23;;;;;;;0.09;100.00;101320.72;5028913;28;20320;-63
2024/01/14 02:22:59;;;;;;;83.77;41.73;;;;;;;0.06;100.00;101321.34;5028681;28;20396;-63
2024/01/14 02:25:25;;;;;;;98.10;43.37;;;;;;;0.06;100.00;101334.06;5028883;28;20028;-63
2024/01/14 02:27:52;;;;;;;89.87;41.43;;;;;;;0.05;100.00;101326.31;5028386;28;20025;-63
2024/01/14 02:30:17;;;;;;;91.27;43.13;;;;;;;0.02;100.00;101329.47;5028307;28;20037;-63
2024/01/14 02:32:43;;;;;;;92.10;43.00;;;;;;;0.02;100.00;101328.59;5028853;28;20037;-63
2024/01/14 02:35:08;;;;;;;87.43;40.97;;;;;;;0.01;100.00;101319.16;5028961;28;20026;-63
2024/01/14 02:37:35;;;;;;;96.67;42.03;;;;;;;0.00;100.00;101318.28;5027893;28;20130;-63
2024/01/14 02:40:01;;;;;;;95.13;43.00;;;;;;;0.04;100.00;101314.31;5028849;28;20029;-63
2024/01/14 02:42:26;;;;;;;99.87;43.77;;;;;;;0.04;100.00;101311.75;5028503;28;20530;-63
2024/01/14 02:44:51;;;;;;;100.13;43.30;;;;;;;0.02;100.00;101298.91;5028279;28;20026;-63
2024/01/14 02:47:17;;;;;;;97.10;42.73;;;;;;;0.03;100.00;101300.69;5027724;28;20041;-63
2024/01/14 02:49:42;;;;;;;94.63;44.03;;;;;;;0.06;100.00;101295.84;5028199;28;20040;-63
2024/01/14 02:52:07;;;;;;;95.07;44.83;;;;;;;0.06;100.00;101282.19;5028324;28;20096;-63
2024/01/14 02:54:33;;;;;;;105.00;45.40;;;;;;;0.04;100.00;101276.09;5025321;28;20034;-63
2024/01/14 02:56:58;;;;;;;96.30;43.40;;;;;;;0.04;100.00;101274.44;5022358;28;20022;-63
2024/01/14 02:59:23;;;;;;;105.30;44.53;;;;;;;0.01;100.00;101269.09;5028489;28;20021;-63
2024/01/14 03:01:49;;;;;;;103.23;44.73;;;;;;;-0.04;100.00;101270.38;5028272;28;20866;-63
2024/01/14 03:04:14;;;;;;;110.80;46.43;;;;;;;-0.08;100.00;101271.78;5027944;28;20104;-63
2024/01/14 03:06:39;;;;;;;107.23;47.30;;;;;;;-0.04;100.00;101266.19;5028230;28;20445;-63
2024/01/14 03:09:06;;;;;;;96.63;44.83;;;;;;;-0.06;100.00;101254.97;5026975;28;20025;-63
2024/01/14 03:11:33;;;;;;;94.40;45.50;;;;;;;-0.04;100.00;101261.09;5028002;28;20412;-63
2024/01/14 03:13:58;;;;;;;96.03;44.47;;;;;;;-0.08;100.00;101260.69;5014907;28;20509;-63
2024/01/14 03:16:23;;;;;;;96.83;43.60;;;;;;;-0.07;100.00;101255.72;5027006;28;20034;-63
2024/01/14 03:18:49;;;;;;;93.53;43.80;;;;;;;-0.08;100.00;101248.84;5027977;28;20036;-63
2024/01/14 03:21:20;;;;;;;87.27;42.77;;;;;;;-0.10;100.00;101252.91;5027575;28;20531;-62
2024/01/14 03:23:46;;;;;;;93.50;43.00;;;;;;;-0.12;100.00;101246.81;5027239;28;20029;-63
2024/01/14 03:26:12;;;;;;;91.20;42.03;;;;;;;-0.15;100.00;101250.00;5027010;28;20414;-62
2024/01/14 03:28:39;;;;;;;86.50;41.27;;;;;;;-0.14;100.00;101244.13;5028259;28;20041;-63
2024/01/14 03:31:05;;;;;;;84.50;40.10;;;;;;;-0.10;100.00;101240.19;5027049;28;20488;-63
2024/01/14 03:33:30;;;;;;;84.63;39.63;;;;;;;-0.10;100.00;101229.09;5027613;28;20028;-63
2024/01/14 03:35:55;;;;;;;92.87;43.70;;;;;;;-0.14;100.00;101230.50;5025459;28;20532;-63
2024/01/14 03:38:21;;;;;;;91.13;41.83;;;;;;;-0.16;100.00;101237.13;5027167;28;20408;-63
2024/01/14 03:40:46;;;;;;;88.83;40.77;;;;;;;-0.17;100.00;101227.69;5027331;28;20040;-62
2024/01/14 03:43:12;;;;;;;89.13;41.17;;;;;;;-0.17;100.00;101237.88;5027308;28;20033;-62
2024/01/14 03:45:37;;;;;;;81.23;40.70;;;;;;;-0.19;100.00;101227.56;5026779;28;20493;-63
2024/01/14 03:48:03;;;;;;;84.40;41.30;;;;;;;-0.18;100.00;101221.69;5027566;28;20033;-63
2024/01/14 03:50:28;;;;;;;83.67;38.70;;;;;;;-0.22;100.00;101227.34;5026398;28;20208;-63
2024/01/14 03:52:53;;;;;;;81.40;39.60;;;;;;;-0.22;100.00;101217.16;5026517;28;20064;-63
2024/01/14 03:55:19;;;;;;;81.80;41.00;;;;;;;-0.21;100.00;101218.00;5027210;28;20484;-63
2024/01/14 03:57:44;;;;;;;81.13;40.17;;;;;;;-0.22;100.00;101212.03;5026930;28;20017;-62
2024/01/14 04:00:11;;;;;;;88.00;41.07;;;;;;;-0.22;100.00;101213.69;5027350;28;20154;-63
2024/01/14 04:02:36;;;;;;;83.97;39.77;;;;;;;-0.25;100.00;101211.78;5026643;28;20031;-63
2024/01/14 04:05:01;;;;;;;80.00;39.20;;;;;;;-0.28;100.00;101217.53;5026606;28;20398;-63
2024/01/14 04:07:26;;;;;;;81.10;39.23;;;;;;;-0.28;100.00;101211.53;5025253;28;20026;-63
2024/01/14 04:09:52;;;;;;;85.20;39.23;;;;;;;-0.28;100.00;101208.97;5026567;28;20028;-63
2024/01/14 04:12:17;;;;;;;90.93;40.70;;;;;;;-0.29;100.00;101207.22;5026481;28;20033;-63
2024/01/14 04:14:44;;;;;;;85.67;40.90;;;;;;;-0.30;100.00;101206.31;5027111;28;20466;-63
2024/01/14 04:17:09;;;;;;;85.33;38.90;;;;;;;-0.31;100.00;101201.09;5026119;28;20025;-63
2024/01/14 04:19:36;;;;;;;79.37;39.00;;;;;;;-0.31;100.00;101191.81;5026460;28;20033;-63
2024/01/14 04:22:02;;;;;;;75.80;35.13;;;;;;;-0.30;100.00;101200.31;5026020;28;20466;-63
2024/01/14 04:24:27;;;;;;;79.90;38.07;;;;;;;-0.33;100.00;101198.44;5026831;28;20040;-63
2024/01/14 04:26:53;;;;;;;79.30;37.43;;;;;;;-0.34;100.00;101186.44;5026155;28;20026;-63
2024/01/14 04:29:18;;;;;;;78.77;39.20;;;;;;;-0.32;100.00;101200.19;5026371;28;20037;-63
2024/01/14 04:31:43;;;;;;;78.30;38.27;;;;;;;-0.39;100.00;101200.47;5026658;28;20030;-63
2024/01/14 04:34:08;;;;;;;82.27;37.07;;;;;;;-0.40;100.00;101198.69;5026595;28;20029;-63
2024/01/14 04:36:34;;;;;;;78.53;38.13;;;;;;;-0.40;100.00;101188.50;5025950;28;20044;-63
2024/01/14 04:38:59;;;;;;;80.07;37.73;;;;;;;-0.40;100.00;101198.69;5026663;28;20531;-63
2024/01/14 04:41:24;;;;;;;80.10;36.17;;;;;;;-0.37;100.00;101188.75;5025827;28;20048;-62
2024/01/14 04:43:49;;;;;;;80.77;38.13;;;;;;;-0.44;100.00;101184.81;5026812;28;20036;-63
2024/01/14 04:46:15;;;;;;;77.73;36.83;;;;;;;-0.40;100.00;101188.50;5026041;28;20101;-62
2024/01/14 04:48:40;;;;;;;77.70;35.83;;;;;;;-0.38;100.00;101182.75;5026712;28;20096;-63
2024/01/14 04:51:06;;;;;;;80.57;36.43;;;;;;;-0.40;100.00;101180.84;5025934;28;20064;-62
2024/01/14 04:53:31;;;;;;;71.53;34.33;;;;;;;-0.37;100.00;101173.47;5026284;28;20033;-63
2024/01/14 04:55:56;;;;;;;68.50;35.23;;;;;;;-0.36;100.00;101172.72;5025656;28;20025;-63
2024/01/14 04:58:21;;;;;;;64.57;33.30;;;;;;;-0.41;100.00;101169.78;5026591;28;20025;-63
2024/01/14 05:00:47;;;;;;;71.13;34.57;;;;;;;-0.41;100.00;101171.41;5025828;28;20083;-62
2024/01/14 05:03:12;;;;;;;64.87;31.80;;;;;;;-0.42;100.00;101168.00;5026398;28;20056;-62
2024/01/14 05:05:37;;;;;;;66.40;31.83;;;;;;;-0.43;100.00;101162.78;5025752;28;20033;-62
2024/01/14 05:08:03;;;;;;;65.87;32.73;;;;;;;-0.46;100.00;101159.97;5026249;28;20021;-63
2024/01/14 05:10:28;;;;;;;58.93;31.30;;;;;;;-0.47;100.00;101158.19;5025871;28;20067;-63
2024/01/14 05:12:53;;;;;;;68.30;32.20;;;;;;;-0.45;100.00;101164.31;5025465;28;20045;-62
2024/01/14 05:15:19;;;;;;;61.60;32.07;;;;;;;-0.49;100.00;101151.31;5025446;28;20538;-62
2024/01/14 05:17:44;;;;;;;58.17;29.77;;;;;;;-0.44;100.00;101148.25;5026626;28;20036;-62
2024/01/14 05:20:10;;;;;;;57.53;29.97;;;;;;;-0.46;100.00;101147.22;5025706;28;20032;-63
2024/01/14 05:22:35;;;;;;;58.13;29.97;;;;;;;-0.47;100.00;101153.09;5026007;28;20498;-63
2024/01/14 05:25:00;;;;;;;59.83;29.33;;;;;;;-0.48;100.00;101147.13;5025240;28;20024;-63
2024/01/14 05:27:25;;;;;;;59.53;28.63;;;;;;;-0.47;100.00;101138.72;5026500;28;20029;-63
2024/01/14 05:29:51;;;;;;;54.10;27.50;;;;;;;-0.47;100.00;101148.00;5025821;28;20029;-63
2024/01/14 05:32:16;;;;;;;55.00;29.23;;;;;;;-0.57;100.00;101141.25;5024892;28;20029;-63
2024/01/14 05:34:43;;;;;;;54.33;26.90;;;;;;;-0.55;100.00;101139.72;5026071;28;20036;-63
2024/01/14 05:37:08;;;;;;;54.70;28.93;;;;;;;-0.56;100.00;101143.97;5025573;28;20048;-63
2024/01/14 05:39:34;;;;;;;56.27;29.83;;;;;;;-0.57;100.00;101137.06;5025873;28;20469;-63
2024/01/14 05:42:00;;;;;;;62.07;31.23;;;;;;;-0.57;100.00;101129.44;5029953;28;20108;-63
2024/01/14 05:44:25;;;;;;;59.67;30.40;;;;;;;-0.55;100.00;101122.81;5029423;28;20623;-63
2024/01/14 05:46:51;;;;;;;54.03;29.47;;;;;;;-0.58;100.00;101127.66;5029622;28;20473;-63
2024/01/14 05:49:17;;;;;;;62.83;30.97;;;;;;;-0.59;100.00;101125.84;5029622;28;20025;-63
2024/01/14 05:51:42;;;;;;;60.33;31.70;;;;;;;-0.59;100.00;101123.31;5029398;28;20067;-62
2024/01/14 05:54:08;;;;;;;62.77;30.70;;;;;;;-0.60;100.00;101126.63;5028888;28;20823;-62
2024/01/14 05:56:34;;;;;;;59.87;30.40;;;;;;;-0.58;100.00;101120.03;5029584;28;20009;-63
2024/01/14 05:59:00;;;;;;;70.40;31.13;;;;;;;-0.62;100.00;101118.88;5028968;28;20473;-63
2024/01/14 06:01:27;;;;;;;60.30;30.50;;;;;;;-0.61;100.00;101110.47;5029373;28;20082;-63
2024/01/14 06:03:52;;;;;;;61.23;30.47;;;;;;;-0.58;100.00;101103.84;5028720;28;20045;-63
2024/01/14 06:06:17;;;;;;;71.87;34.13;;;;;;;-0.64;100.00;101100.03;5029134;28;20068;-63
2024/01/14 06:08:43;;;;;;;65.70;32.33;;;;;;;-0.65;100.00;101099.91;5028829;28;20018;-63
2024/01/14 06:11:09;;;;;;;64.27;30.97;;;;;;;-0.65;100.00;101097.38;5028961;28;20030;-62
2024/01/14 06:13:34;;;;;;;64.60;31.10;;;;;;;-0.63;100.00;101095.84;5028429;28;20032;-63
2024/01/14 06:16:00;;;;;;;65.73;31.53;;;;;;;-0.61;100.00;101096.84;5029102;28;20040;-62
2024/01/14 06:18:28;;;;;;;66.07;32.20;;;;;;;-0.64;100.00;101094.03;5028124;28;20033;-63
2024/01/14 06:20:55;;;;;;;68.67;31.43;;;;;;;-0.66;100.00;101095.56;5028538;28;20028;-63
2024/01/14 06:23:21;;;;;;;65.80;33.47;;;;;;;-0.65;100.00;101088.06;5029101;28;20026;-62
2024/01/14 06:25:46;;;;;;;65.23;33.20;;;;;;;-0.64;100.00;101083.88;5028842;28;20112;-63
2024/01/14 06:28:11;;;;;;;62.47;33.03;;;;;;;-0.65;100.00;101087.19;5028127;28;20022;-63
2024/01/14 06:30:37;;;;;;;61.47;33.27;;;;;;;-0.67;100.00;101083.63;5028635;28;20385;-63
2024/01/14 06:33:02;;;;;;;70.17;33.53;;;;;;;-0.66;100.00;101080.28;5027757;28;20096;-62
2024/01/14 06:35:27;;;;;;;65.37;32.60;;;;;;;-0.65;100.00;101077.00;5028679;28;20021;-63
2024/01/14 06:37:53;;;;;;;64.00;30.73;;;;;;;-0.65;100.00;101072.78;5028614;28;20107;-63
2024/01/14 06:40:18;;;;;;;59.23;32.20;;;;;;;-0.66;100.00;101067.56;5028732;28;20036;-63
2024/01/14 06:42:43;;;;;;;62.53;30.43;;;;;;;-0.67;100.00;101063.25;5027777;28;20088;-62
2024/01/14 06:45:12;;;;;;;63.20;30.67;;;;;;;-0.64;100.00;101073.69;5028312;28;20432;-63
2024/01/14 06:47:37;;;;;;;60.80;30.37;;;;;;;-0.67;100.00;101069.25;5028451;28;20056;-63
2024/01/14 06:50:03;;;;;;;62.97;31.50;;;;;;;-0.68;100.00;101069.09;5029033;28;20061;-62
2024/01/14 06:52:28;;;;;;;62.07;30.50;;;;;;;-0.66;100.00;101049.75;5026707;28;20515;-63
2024/01/14 06:54:53;;;;;;;54.37;28.17;;;;;;;-0.65;100.00;101054.09;5025524;28;20025;-63
2024/01/14 06:57:19;;;;;;;53.57;28.83;;;;;;;-0.66;100.00;101057.38;5025810;28;20105;-63
2024/01/14 06:59:44;;;;;;;62.00;29.93;;;;;;;-0.67;100.00;101053.06;5026359;28;20029;-63
2024/01/14 07:02:11;;;;;;;54.30;29.23;;;;;;;-0.71;100.00;101048.47;5027160;28;20295;-62
2024/01/14 07:04:36;;;;;;;57.63;28.90;;;;;;;-0.68;100.00;101046.19;5036305;28;20033;-62
2024/01/14 07:07:02;;;;;;;60.10;29.50;;;;;;;-0.70;100.00;101042.66;5023266;28;20494;-63
2024/01/14 07:09:27;;;;;;;59.57;27.70;;;;;;;-0.72;100.00;101045.06;5035590;28;20082;-62
2024/01/14 07:11:52;;;;;;;54.53;28.10;;;;;;;-0.69;100.00;101045.31;5036167;28;20681;-62
2024/01/14 07:14:17;;;;;;;54.80;25.47;;;;;;;-0.69;100.00;101045.31;5037194;28;20047;-63
2024/01/14 07:16:43;;;;;;;59.57;30.33;;;;;;;-0.68;100.00;101047.06;5037773;28;20050;-63
2024/01/14 07:19:08;;;;;;;56.73;29.47;;;;;;;-0.71;100.00;101036.66;5038020;28;20380;-63
2024/01/14 07:21:33;;;;;;;56.23;30.17;;;;;;;-0.68;100.00;101046.19;5039112;28;20032;-62
2024/01/14 07:23:59;;;;;;;59.80;28.60;;;;;;;-0.65;100.00;101037.13;5039674;28;20031;-63
2024/01/14 07:26:25;;;;;;;62.60;29.60;;;;;;;-0.68;100.00;101036.00;5039351;28;20783;-62
2024/01/14 07:28:52;;;;;;;59.47;29.97;;;;;;;-0.69;100.00;101045.31;5039166;28;20025;-62
2024/01/14 07:31:21;;;;;;;61.07;29.83;;;;;;;-0.69;100.00;101044.41;5037320;28;20033;-62
2024/01/14 07:33:48;;;;;;;60.13;29.67;;;;;;;-0.69;100.00;101042.78;5039692;28;20718;-63
2024/01/14 07:36:14;;;;;;;57.40;28.83;;;;;;;-0.69;100.00;101044.41;5038571;28;20527;-63
2024/01/14 07:38:39;;;;;;;62.60;29.50;;;;;;;-0.71;100.00;101035.75;5039485;28;20079;-62
2024/01/14 07:41:05;;;;;;;62.37;29.83;;;;;;;-0.72;100.00;101039.97;5015281;28;20084;-62
2024/01/14 07:43:31;;;;;;;62.33;30.07;;;;;;;-0.74;100.00;101032.19;5023380;28;20028;-63
2024/01/14 07:45:56;;;;;;;62.37;30.60;;;;;;;-0.70;100.00;101037.56;5023498;28;20039;-62
2024/01/14 07:48:26;;;;;;;55.77;28.70;;;;;;;-0.75;100.00;101032.06;5022799;28;20033;-63
2024/01/14 07:50:51;;;;;;;60.10;28.17;;;;;;;-0.70;100.00;101040.09;5022243;28;20053;-63
2024/01/14 07:53:18;;;;;;;64.27;29.60;;;;;;;-0.75;100.00;101040.59;5022399;28;20060;-63
2024/01/14 07:55:43;;;;;;;63.63;30.80;;;;;;;-0.75;100.00;101043.16;5021395;28;20487;-62
2024/01/14 07:58:11;;;;;;;64.73;31.03;;;;;;;-0.77;100.00;101037.03;5022374;28;20021;-63
2024/01/14 08:00:37;;;;;;;61.93;30.10;;;;;;;-0.75;100.00;101034.63;5021733;28;20049;-63
2024/01/14 08:03:02;;;;;;;66.23;30.03;;;;;;;-0.74;100.00;101037.28;5012095;28;20030;-63
2024/01/14 08:05:27;;;;;;;56.23;28.50;;;;;;;-0.74;100.00;101036.41;5027203;28;20029;-63
2024/01/14 08:07:53;;;;;;;62.90;28.40;;;;;;;-0.70;100.00;101032.47;5027109;28;20028;-63
2024/01/14 08:10:18;;;;;;;59.37;27.53;;;;;;;-0.73;100.00;101031.44;5026418;28;20049;-63
2024/01/14 08:12:43;;;;;;;57.93;28.13;;;;;;;-0.70;100.00;101032.47;5026549;28;20033;-63
2024/01/14 08:15:08;;;;;;;57.23;29.07;;;;;;;-0.69;100.00;101024.06;5027057;28;20070;-63
2024/01/14 08:17:34;;;;;;;55.90;27.87;;;;;;;-0.74;100.00;101029.66;5025299;28;20100;-62
2024/01/14 08:19:59;;;;;;;52.70;26.83;;;;;;;-0.72;100.00;101027.25;5024668;28;20497;-62
2024/01/14 08:22:24;;;;;;;55.07;27.30;;;;;;;-0.69;100.00;101029.13;5025586;28;20072;-62
2024/01/14 08:24:49;;;;;;;52.27;27.17;;;;;;;-0.68;100.00;101026.72;5026349;28;20040;-62
2024/01/14 08:27:15;;;;;;;50.13;27.50;;;;;;;-0.66;100.00;101026.84;5027046;28;20527;-63
2024/01/14 08:29:40;;;;;;;56.77;26.77;;;;;;;-0.68;100.00;101025.81;5026289;28;20060;-62
2024/01/14 08:32:06;;;;;;;49.43;25.20;;;;;;;-0.69;100.00;101034.22;5026633;28;20492;-63
2024/01/14 08:34:31;;;;;;;48.93;25.27;;;;;;;-0.65;100.00;101033.72;5026378;28;20026;-63
2024/01/14 08:36:56;;;;;;;54.03;27.67;;;;;;;-0.66;100.00;101034.47;5026547;28;20056;-63
2024/01/14 08:39:21;;;;;;;51.20;26.37;;;;;;;-0.66;100.00;101030.28;5026962;28;20417;-62
2024/01/14 08:41:47;;;;;;;52.73;26.13;;;;;;;-0.62;100.00;101039.06;5025061;28;20081;-62
2024/01/14 08:44:14;;;;;;;54.00;27.60;;;;;;;-0.62;100.00;101031.41;5027083;28;20149;-62
2024/01/14 08:46:40;;;;;;;55.03;26.50;;;;;;;-0.60;100.00;101029.88;5026392;28;20029;-63
2024/01/14 08:49:06;;;;;;;51.07;25.07;;;;;;;-0.58;100.00;101025.81;5026229;28;20037;-63
2024/01/14 08:51:32;;;;;;;52.83;27.73;;;;;;;-0.57;100.00;101019.94;5025731;28;20053;-62
2024/01/14 08:54:00;;;;;;;53.60;25.93;;;;;;;-0.55;100.00;101020.97;5025844;28;20083;-63
2024/01/14 08:56:27;;;;;;;55.20;28.80;;;;;;;-0.57;100.00;101019.03;5017949;28;20079;-63
2024/01/14 08:58:52;;;;;;;53.33;27.50;;;;;;;-0.58;100.00;101025.81;5013100;28;20038;-63
2024/01/14 09:01:17;;;;;;;56.03;29.27;;;;;;;-0.56;100.00;101023.38;5026570;28;20505;-63
2024/01/14 09:03:43;;;;;;;57.90;26.53;;;;;;;-0.54;100.00;101020.19;5024798;28;20025;-62
2024/01/14 09:06:09;;;;;;;50.30;26.77;;;;;;;-0.53;100.00;101021.97;5026226;28;20113;-63
2024/01/14 09:08:35;;;;;;;56.57;27.70;;;;;;;-0.46;100.00;101030.09;5026160;28;20056;-63
2024/01/14 09:11:00;;;;;;;54.73;29.13;;;;;;;-0.44;100.00;101026.00;5026177;28;20473;-63
2024/01/14 09:13:26;;;;;;;48.27;26.07;;;;;;;-0.52;100.00;101021.19;5024105;28;20128;-63
2024/01/14 09:15:51;;;;;;;50.30;25.43;;;;;;;-0.48;100.00;101024.88;5027229;28;20013;-63
2024/01/14 09:18:16;;;;;;;51.50;25.77;;;;;;;-0.53;100.00;101021.97;5029831;28;20128;-63
2024/01/14 09:20:42;;;;;;;49.80;25.60;;;;;;;-0.54;100.00;101015.09;5029823;28;20196;-63
2024/01/14 09:23:08;;;;;;;45.53;23.93;;;;;;;-0.57;100.00;101012.31;5029557;28;20025;-63
2024/01/14 09:25:33;;;;;;;49.00;25.80;;;;;;;-0.56;100.00;101016.66;5028660;28;20302;-63
2024/01/14 09:27:58;;;;;;;53.77;26.47;;;;;;;-0.56;100.00;101011.56;5029054;28;20033;-63
2024/01/14 09:30:23;;;;;;;51.90;26.93;;;;;;;-0.57;100.00;101001.22;5028994;28;20443;-63
2024/01/14 09:32:49;;;;;;;52.27;27.83;;;;;;;-0.56;100.00;101009.00;5028445;28;20110;-63
2024/01/14 09:35:14;;;;;;;49.20;26.43;;;;;;;-0.60;100.00;100999.34;5026722;28;20026;-63
2024/01/14 09:37:39;;;;;;;51.30;26.40;;;;;;;-0.56;100.00;101001.38;5029086;28;20057;-62
2024/01/14 09:40:06;;;;;;;58.70;27.73;;;;;;;-0.55;100.00;101000.59;5028795;28;20036;-63
2024/01/14 09:42:35;;;;;;;54.97;29.57;;;;;;;-0.54;100.00;100999.81;5027789;28;20033;-62
2024/01/14 09:45:02;;;;;;;49.70;27.47;;;;;;;-0.49;100.00;100993.41;5028233;28;20138;-63
2024/01/14 09:47:28;;;;;;;57.37;29.67;;;;;;;-0.46;100.00;100994.44;5028066;28;20036;-63
2024/01/14 09:49:55;;;;;;;55.03;27.73;;;;;;;-0.49;100.00;100988.31;5026899;28;20029;-63
2024/01/14 09:52:22;;;;;;;55.97;28.80;;;;;;;-0.45;100.00;100983.50;5026155;28;20446;-63
2024/01/14 09:54:47;;;;;;;57.63;28.23;;;;;;;-0.45;100.00;100983.50;5026815;28;20026;-63
2024/01/14 09:57:18;;;;;;;60.00;29.73;;;;;;;-0.44;100.00;100978.53;5026603;28;20112;-62
2024/01/14 09:59:44;;;;;;;61.05;28.73;;;;;;;-0.39;100.00;100994.16;5028148;28;20063;-62
2024/01/14 10:02:12;;;;;;;56.27;29.07;;;;;;;-0.38;100.00;100983.22;5027488;28;20552;-63
2024/01/14 10:04:42;;;;;;;56.73;27.17;;;;;;;-0.37;100.00;100982.44;5027624;28;20036;-63
2024/01/14 10:07:08;;;;;;;54.57;28.83;;;;;;;-0.33;100.00;100988.66;5027555;28;20593;-62
2024/01/14 10:09:34;;;;;;;51.50;27.40;;;;;;;-0.34;100.00;100987.75;5028982;28;20109;-63
2024/01/14 10:11:59;;;;;;;49.77;27.10;;;;;;;-0.33;100.00;100994.66;5029157;28;20021;-63
2024/01/14 10:14:26;;;;;;;52.13;28.07;;;;;;;-0.31;100.00;100985.47;5028993;28;20018;-63
2024/01/14 10:16:57;;;;;;;58.33;28.00;;;;;;;-0.30;100.00;100982.16;5028948;28;20454;-63
2024/01/14 10:19:23;;;;;;;52.50;28.73;;;;;;;-0.26;100.00;100981.63;5028981;28;20101;-63
2024/01/14 10:21:51;;;;;;;56.37;28.73;;;;;;;-0.26;100.00;100970.53;5028274;28;20022;-63
2024/01/14 10:24:16;;;;;;;50.10;27.10;;;;;;;-0.18;100.00;100963.50;5028850;28;20025;-63
2024/01/14 10:26:42;;;;;;;52.47;26.63;;;;;;;-0.23;100.00;100959.72;5028223;28;20021;-63
2024/01/14 10:29:07;;;;;;;52.23;26.37;;;;;;;-0.18;100.00;100955.88;5028845;28;20086;-63
2024/01/14 10:31:32;;;;;;;49.23;26.53;;;;;;;-0.18;100.00;100956.72;5028522;28;20028;-63
2024/01/14 10:33:59;;;;;;;52.87;28.80;;;;;;;-0.20;100.00;100949.75;5029090;28;20065;-63
2024/01/14 10:36:28;;;;;;;46.90;26.23;;;;;;;-0.17;100.00;100939.81;5028332;28;20521;-62
2024/01/14 10:38:56;;;;;;;48.70;26.03;;;;;;;-0.17;100.00;100939.81;5029179;28;20041;-62
2024/01/14 10:41:21;;;;;;;50.20;26.33;;;;;;;-0.17;100.00;100942.34;5027743;28;20105;-62
2024/01/14 10:43:46;;;;;;;46.27;24.40;;;;;;;-0.21;100.00;100943.75;5028500;28;20124;-63
2024/01/14 10:46:14;;;;;;;45.70;24.33;;;;;;;-0.17;100.00;100934.69;5027289;28;20378;-63
2024/01/14 10:48:40;;;;;;;45.57;25.20;;;;;;;-0.20;100.00;100919.19;5028665;28;20512;-63
2024/01/14 10:51:09;;;;;;;41.67;25.10;;;;;;;-0.18;100.00;100917.66;5027862;28;20064;-63
2024/01/14 10:53:46;;;;;;;43.67;25.00;;;;;;;-0.16;100.00;100927.16;5028490;28;20036;-63
2024/01/14 10:56:15;;;;;;;45.13;23.83;;;;;;;-0.20;100.00;100916.63;5028678;28;20017;-63